Řízení letového provozu České republiky  
Aktualizace dat:  07.07.2015 08:51:14 UTC English version
   METEO Zobrazení stránky:  07.07.2015 08:52:12 UTC  
vysvětlivky
METAR EDDB 070820Z 15005KT 070V210 CAVOK 25/11 Q1015 NOSIG=
METAR EDDC 070820Z VRB03KT CAVOK 26/11 Q1016 NOSIG=
METAR EDDE 070820Z VRB03KT CAVOK 23/14 Q1015 NOSIG=
METAR EDDF 070820Z VRB03KT CAVOK 26/09 Q1013 BECMG 18007KT=
METAR EDDM 070820Z VRB02KT CAVOK 27/20 Q1016 NOSIG=
METAR EDDN 070820Z 12004KT 070V180 CAVOK 29/15 Q1015 NOSIG=
METAR EDDP 070820Z 15007KT CAVOK 25/13 Q1015 NOSIG=
METAR EDDT 070820Z 19007KT 120V250 CAVOK 25/11 Q1015 NOSIG=
METAR EDQM 070820Z 08003KT 030V140 CAVOK 25/12 Q1017=
METAR EPBY 070830Z 22012KT CAVOK 24/10 Q1015 =
METAR EPGD 070830Z 30013KT 260V330 9999 SCT040 21/11 Q1014 =
METAR EPKK 070830Z VRB04KT CAVOK 26/15 Q1018 =
METAR EPKT 070830Z 26005KT 230V360 CAVOK 25/12 Q1018 =
METAR EPLL 070830Z 28013KT CAVOK 25/08 Q1017 =
METAR EPPO 070830Z 25008KT 200V280 CAVOK 25/10 Q1016 =
METAR EPRZ 070830Z 17004KT 130V250 9999 FEW036 25/15 Q1018 =
METAR EPWA 070830Z 23007KT 200V270 CAVOK 26/12 Q1016 NOSIG=
METAR EPWR 070830Z 17005KT 120V270 CAVOK 28/14 Q1017 =
METAR LHBP 070830Z 06004KT CAVOK 31/18 Q1016 NOSIG=
METAR LHSM 070815Z 15003KT CAVOK 31/21 Q1017 NOSIG=
METAR LKCV 070800Z VRB02KT CAVOK 26/16 Q1017 NOSIG=
METAR LKKB 070800Z VRB03KT CAVOK 25/14 Q1017 NOSIG =
METAR LKKU 070833Z 03003KT 320V090 CAVOK 30/16 Q1016=
METAR LKKV 070830Z VRB04KT CAVOK 24/14 Q1017 RMK REG QNH 1014=
METAR LKLN 070800Z AUTO 11001KT CAVOK 23/15 Q1017=
METAR LKMT 070830Z VRB02KT CAVOK 25/16 Q1018 NOSIG RMK REG QNH 1014=
METAR LKNA 070800Z 14006KT 090V200 CAVOK 26/15 Q1018 NOSIG=
METAR COR LKPD 070800Z VRB02KT CAVOK 25/13 Q1017 NOSIG =
SPECI LKPR 070849Z VRB03KT CAVOK 27/16 Q1016 RMK REG QNH 1014=
METAR LKTB 070830Z 10006KT 070V130 9999 FEW043 28/17 Q1017 NOSIG RMK REG QNH 1014=
METAR LKVO 070800Z VRB03KT CAVOK 25/15 Q1017=
METAR LOWI 070820Z 28005KT 9999 FEW070 27/19 Q1017 NOSIG=
METAR LOWL 070820Z 09008KT CAVOK 27/19 Q1016 NOSIG=
METAR LOWS 070820Z 15005KT 110V190 9999 FEW070 29/19 Q1016 NOSIG=
METAR LOWW 070820Z VRB04KT CAVOK 28/19 Q1016 NOSIG=
METAR LZIB 070830Z 05005KT 010V080 CAVOK 30/17 Q1016 NOSIG=
METAR LZKZ 070830Z 02008KT 350V060 CAVOK 27/17 Q1017 NOSIG=
METAR LZPP 070830Z VRB01KT CAVOK 31/16 Q1016=
METAR LZSL 070830Z VRB02KT CAVOK 30/13 Q1017=
METAR LZTT 070830Z 03006KT 9999 FEW033 25/17 Q1019 NOSIG=
METAR LZZI 070830Z VRB02KT 9999 FEW040 28/15 Q1017=